| time (UTC) | temp F | wind direction | speed MPH | gust MPH | rain 1hr in | rain 24hr in | rain mn in | humidity % | barometer mb |
| 20260904210028 | 80 | 57 | 0.0 | 0.0 | 0.00 | 0.31 | 0.23 | 88 | 1014.6 |
| 20260904204527 | 80 | 57 | 0.0 | 2.0 | 0.00 | 0.31 | 0.23 | 88 | 1014.9 |
| 20260904203007 | 79 | 249 | 0.0 | 2.0 | 0.00 | 0.31 | 0.23 | 89 | 1015.1 |
| 20260904201512 | 78 | 262 | 0.0 | 0.0 | 0.00 | 0.31 | 0.23 | 90 | 1014.9 |
| 20260904200020 | 78 | 262 | 0.0 | 0.0 | 0.01 | 0.31 | 0.23 | 90 | 1015.0 |
| 20260904194545 | 78 | 262 | 0.0 | 2.0 | 0.10 | 0.31 | 0.23 | 90 | 1015.5 |
| 20260904193030 | 77 | 289 | 0.0 | 2.0 | 0.17 | 0.31 | 0.23 | 90 | 1015.7 |
| 20260904191522 | 77 | 286 | 0.0 | 2.0 | 0.18 | 0.31 | 0.23 | 87 | 1016.2 |
| 20260904190017 | 77 | 117 | 0.0 | 2.0 | 0.22 | 0.30 | 0.22 | 86 | 1016.0 |
| 20260904184523 | 79 | 111 | 0.0 | 2.0 | 0.13 | 0.21 | 0.13 | 87 | 1016.5 |
| 20260904183034 | 80 | 162 | 0.0 | 4.0 | 0.06 | 0.14 | 0.06 | 85 | 1017.1 |
| 20260904181530 | 83 | 86 | 1.0 | 6.0 | 0.05 | 0.13 | 0.05 | 81 | 1016.6 |
| 20260904180014 | 89 | 205 | 2.0 | 9.0 | 0.00 | 0.08 | 0.00 | 71 | 1016.3 |
| 20260904174551 | 91 | 271 | 0.0 | 2.0 | 0.00 | 0.08 | 0.00 | 66 | 1015.4 |
| 20260904173005 | 92 | 186 | 0.0 | 2.0 | 0.00 | 0.08 | 0.00 | 63 | 1015.6 |
| 20260904171508 | 93 | 260 | 1.0 | 2.0 | 0.00 | 0.08 | 0.00 | 63 | 1015.8 |
| 20260904170012 | 92 | 275 | 1.0 | 4.0 | 0.00 | 0.13 | 0.00 | 65 | 1016.1 |
| 20260904164519 | 92 | 261 | 0.0 | 2.0 | 0.00 | 0.16 | 0.00 | 65 | 1016.1 |
| 20260904163025 | 92 | 281 | 0.0 | 2.0 | 0.00 | 0.16 | 0.00 | 67 | 1016.2 |
| 20260904161506 | 92 | 148 | 0.0 | 2.0 | 0.00 | 0.16 | 0.00 | 67 | 1016.6 |
| 20260904160011 | 92 | 115 | 0.0 | 2.0 | 0.00 | 0.16 | 0.00 | 67 | 1016.8 |
| 20260904154533 | 90 | 227 | 1.0 | 3.0 | 0.00 | 0.16 | 0.00 | 71 | 1017.0 |
| 20260904153033 | 89 | 250 | 0.0 | 2.0 | 0.00 | 0.16 | 0.00 | 72 | 1016.9 |
| 20260904151533 | 88 | 246 | 0.0 | 3.0 | 0.00 | 0.16 | 0.00 | 75 | 1016.9 |
| 20260904150011 | 87 | 271 | 0.0 | 3.0 | 0.00 | 0.16 | 0.00 | 76 | 1016.6 |
| 20260904144518 | 85 | 111 | 0.0 | 3.0 | 0.00 | 0.16 | 0.00 | 79 | 1016.3 |
| 20260904143024 | 84 | 99 | 0.0 | 2.0 | 0.00 | 0.16 | 0.00 | 80 | 1016.3 |
| 20260904141529 | 84 | 58 | 1.0 | 4.0 | 0.00 | 0.16 | 0.00 | 82 | 1016.5 |
| 20260904140007 | 83 | 182 | 0.0 | 0.0 | 0.00 | 0.16 | 0.00 | 83 | 1016.5 |
| 20260904134513 | 82 | 280 | 0.0 | 0.0 | 0.00 | 0.16 | 0.00 | 83 | 1016.2 |
| 20260904133018 | 82 | 280 | 0.0 | 0.0 | 0.00 | 0.16 | 0.00 | 83 | 1016.3 |
| 20260904131523 | 82 | 267 | 0.0 | 0.0 | 0.00 | 0.16 | 0.00 | 84 | 1016.2 |
| 20260904130028 | 81 | 256 | 0.0 | 0.0 | 0.00 | 0.16 | 0.00 | 86 | 1016.0 |
| 20260904124512 | 80 | 257 | 0.0 | 0.0 | 0.00 | 0.16 | 0.00 | 87 | 1015.8 |
| 20260904123015 | 80 | 257 | 0.0 | 0.0 | 0.00 | 0.16 | 0.00 | 88 | 1015.5 |
| 20260904121521 | 80 | 257 | 0.0 | 0.0 | 0.00 | 0.16 | 0.00 | 90 | 1015.9 |
| 20260904120038 | 79 | 109 | 0.0 | 0.0 | 0.00 | 0.16 | 0.00 | 93 | 1015.7 |
| 20260904114533 | 79 | 107 | 0.0 | 0.0 | 0.00 | 0.16 | 0.00 | 93 | 1015.5 |
| 20260904113019 | 79 | 107 | 0.0 | 0.0 | 0.00 | 0.16 | 0.00 | 93 | 1015.3 |
| 20260904111518 | 79 | 107 | 0.0 | 0.0 | 0.00 | 0.16 | 0.00 | 93 | 1015.3 |
| 20260904110036 | 79 | 107 | 0.0 | 0.0 | 0.00 | 0.16 | 0.00 | 93 | 1015.0 |
| 20260904104531 | 79 | 107 | 0.0 | 0.0 | 0.00 | 0.16 | 0.00 | 93 | 1014.7 |
| 20260904103016 | 79 | 107 | 0.0 | 0.0 | 0.00 | 0.16 | 0.00 | 93 | 1014.5 |
| 20260904101523 | 79 | 107 | 0.0 | 0.0 | 0.00 | 0.16 | 0.00 | 93 | 1014.7 |
| 20260904100024 | 79 | 107 | 0.0 | 0.0 | 0.00 | 0.16 | 0.00 | 93 | 1014.5 |
| 20260904094528 | 79 | 107 | 0.0 | 0.0 | 0.00 | 0.16 | 0.00 | 93 | 1014.3 |
| 20260904093044 | 79 | 107 | 0.0 | 0.0 | 0.00 | 0.16 | 0.00 | 93 | 1014.2 |
| 20260904091520 | 79 | 107 | 0.0 | 0.0 | 0.00 | 0.16 | 0.00 | 92 | 1014.1 |
| 20260904090023 | 79 | 107 | 0.0 | 0.0 | 0.00 | 0.16 | 0.00 | 92 | 1014.1 |
| 20260904084530 | 79 | 107 | 0.0 | 0.0 | 0.00 | 0.16 | 0.00 | 92 | 1014.2 |
| 20260904083030 | 79 | 107 | 0.0 | 0.0 | 0.00 | 0.17 | 0.00 | 92 | 1014.2 |
| 20260904081538 | 79 | 107 | 0.0 | 0.0 | 0.00 | 0.17 | 0.00 | 92 | 1014.2 |
| 20260904080020 | 79 | 107 | 0.0 | 0.0 | 0.00 | 0.17 | 0.00 | 92 | 1014.1 |
| 20260904074530 | 79 | 107 | 0.0 | 0.0 | 0.00 | 0.17 | 0.00 | 92 | 1014.1 |
| 20260904073031 | 79 | 107 | 0.0 | 0.0 | 0.00 | 0.17 | 0.00 | 92 | 1014.1 |
| 20260904071535 | 79 | 107 | 0.0 | 0.0 | 0.00 | 0.17 | 0.00 | 92 | 1014.1 |
| 20260904070035 | 79 | 107 | 0.0 | 0.0 | 0.00 | 0.17 | 0.00 | 92 | 1014.2 |
| 20260904064533 | 79 | 107 | 0.0 | 0.0 | 0.00 | 0.17 | 0.00 | 92 | 1014.3 |
| 20260904063030 | 79 | 107 | 0.0 | 0.0 | 0.00 | 0.17 | 0.00 | 92 | 1014.3 |
| 20260904061545 | 79 | 107 | 0.0 | 0.0 | 0.00 | 0.17 | 0.00 | 92 | 1014.5 |
| 20260904060036 | 79 | 107 | 0.0 | 0.0 | 0.00 | 0.17 | 0.00 | 91 | 1014.6 |
| 20260904054530 | 79 | 107 | 0.0 | 0.0 | 0.00 | 0.17 | 0.00 | 91 | 1014.8 |
| 20260904053027 | 79 | 107 | 0.0 | 0.0 | 0.00 | 0.17 | 0.00 | 91 | 1014.9 |
| 20260904051533 | 79 | 107 | 0.0 | 0.0 | 0.00 | 0.17 | 0.00 | 91 | 1014.8 |
| 20260904050034 | 79 | 107 | 0.0 | 0.0 | 0.00 | 0.17 | 0.00 | 91 | 1015.0 |
| 20260904044536 | 79 | 107 | 0.0 | 0.0 | 0.00 | 0.17 | 0.00 | 91 | 1015.0 |
| 20260904043025 | 79 | 107 | 0.0 | 0.0 | 0.00 | 0.17 | 0.00 | 91 | 1015.1 |
| 20260904041530 | 79 | 107 | 0.0 | 0.0 | 0.00 | 0.17 | 0.00 | 91 | 1015.1 |
| 20260904040035 | 79 | 107 | 0.0 | 0.0 | 0.00 | 0.17 | 0.00 | 91 | 1015.0 |
| 20260904034546 | 79 | 107 | 0.0 | 0.0 | 0.00 | 0.17 | 0.17 | 90 | 1015.1 |
| 20260904033024 | 79 | 107 | 0.0 | 0.0 | 0.00 | 0.17 | 0.17 | 91 | 1015.2 |
| 20260904031528 | 79 | 107 | 0.0 | 0.0 | 0.00 | 0.19 | 0.17 | 90 | 1015.4 |
| 20260904030035 | 79 | 107 | 0.0 | 0.0 | 0.00 | 0.22 | 0.17 | 90 | 1015.3 |
| 20260904024514 | 79 | 107 | 0.0 | 0.0 | 0.00 | 0.22 | 0.17 | 90 | 1015.3 |
| 20260904023020 | 79 | 107 | 0.0 | 0.0 | 0.00 | 0.22 | 0.17 | 90 | 1015.2 |
| 20260904021526 | 79 | 107 | 0.0 | 0.0 | 0.00 | 0.22 | 0.17 | 89 | 1015.0 |
| 20260904020007 | 79 | 107 | 0.0 | 0.0 | 0.00 | 0.22 | 0.17 | 89 | 1015.1 |
| 20260904014510 | 79 | 107 | 0.0 | 0.0 | 0.00 | 0.22 | 0.17 | 88 | 1015.2 |
| 20260904013020 | 79 | 107 | 0.0 | 0.0 | 0.00 | 0.22 | 0.17 | 89 | 1014.9 |
| 20260904011554 | 80 | 107 | 0.0 | 0.0 | 0.00 | 0.22 | 0.17 | 89 | 1014.5 |
| 20260904010032 | 80 | 107 | 0.0 | 0.0 | 0.00 | 0.22 | 0.17 | 89 | 1014.4 |
| 20260904004511 | 80 | 107 | 0.0 | 0.0 | 0.00 | 0.22 | 0.17 | 90 | 1014.4 |
| 20260904003015 | 80 | 107 | 0.0 | 0.0 | 0.00 | 0.22 | 0.17 | 89 | 1014.3 |
| 20260904001525 | 80 | 107 | 0.0 | 0.0 | 0.00 | 0.22 | 0.17 | 88 | 1014.2 |
| 20260904000038 | 80 | 110 | 0.0 | 0.0 | 0.00 | 0.22 | 0.17 | 89 | 1014.1 |
| 20260903234507 | 80 | 193 | 0.0 | 0.0 | 0.00 | 0.22 | 0.17 | 88 | 1014.0 |
| 20260903233019 | 80 | 224 | 0.0 | 0.0 | 0.00 | 0.22 | 0.17 | 89 | 1013.9 |
| 20260903231520 | 80 | 224 | 0.0 | 0.0 | 0.00 | 0.22 | 0.17 | 89 | 1014.0 |
| 20260903230038 | 80 | 224 | 0.0 | 0.0 | 0.00 | 0.22 | 0.17 | 89 | 1013.9 |
| 20260903224531 | 80 | 224 | 0.0 | 0.0 | 0.00 | 0.22 | 0.17 | 89 | 1014.0 |
| 20260903223016 | 80 | 224 | 0.0 | 0.0 | 0.01 | 0.22 | 0.17 | 88 | 1013.8 |
| 20260903221520 | 80 | 224 | 0.0 | 0.0 | 0.08 | 0.22 | 0.17 | 89 | 1013.6 |
| 20260903220025 | 80 | 224 | 0.0 | 2.0 | 0.08 | 0.22 | 0.17 | 88 | 1013.6 |
| 20260903214533 | 81 | 292 | 0.0 | 0.0 | 0.08 | 0.22 | 0.17 | 86 | 1013.5 |
| 20260903213034 | 83 | 207 | 0.0 | 2.0 | 0.07 | 0.21 | 0.16 | 79 | 1013.5 |
| 20260903211519 | 86 | 241 | 0.0 | 2.0 | 0.00 | 0.14 | 0.09 | 72 | 1013.7 |